Hlavní strana
METAR-TAF:

METAR-TAF

Letiště :

Lonesome Pine Airport

Wise, Virginie, Spojené státy americké

zeměpisná šířka: 36-59N, zeměpisná délka: 082-32W, výška: 817 m

Aktuální stav počasí

Zpráva byla vytvořena před 13 minutami, v 23:15 UTC
Západojihozápadní vítr 13 kt s nárazy do 16 kt
Teplota 10°C
Vlhkost vzduchu 71%
Tlak 1013 hPa
Viditelnost: 16.1 km
Polojasno ve výšce 3400 ft
Polojasno ve výšce 4100 ft

METAR: KLNP 202315Z AUTO 25013G16KT 10SM SCT034 SCT041 10/05 A2992 RMK AO2

Čas: 19:28 (23:28 UTC)


TAF: chybějící

Stav a předpovědi počasí z více než 4 000 letišť (zprávy METAR a TAF).

Červené a žluté tečky na mapě představují dostupné meteorologické stanice.

Když kurzor umístíte na tečku, zobrazí se název stanice.

Pak kliknutím zobrazíte stav a předpověď počasí.

Chcete-li změnit mapu, kliknutím na zelené tlačítko se znaménkem +mapu přiblížíte, kliknutím na zelené tlačítko se znaménkem – mapu oddálíte a kliknutím na zelené šipky přejdete na sousední mapy.


METAR-TAF: